This is the latest recevied weather packets stored in our database for station/object KB4KY. If no packets are shown the sender has not sent any weather packets the latest 1 day(s).
| Time | Temp. | Humidity | Pressure | Rain* | Wind** | Luminosity | Snow |
|---|---|---|---|---|---|---|---|
| 1836274824 | 20.56° C | 100% | 1016.4 hPa | 0 mm | 0 m/s | - | - |
| 1836274522 | 20.56° C | 100% | 1016.4 hPa | 0 mm | 0 m/s | - | - |
| 1836274373 | 20.56° C | 100% | 1016.4 hPa | 0 mm | 0 m/s | - | - |
| 1836274222 | 20.56° C | 100% | 1016.3 hPa | 0 mm | 0 m/s | - | - |
| 1836273922 | 20.56° C | 100% | 1016.2 hPa | 0 mm | 0 m/s | - | - |
| 1778060602 | 10° C | 96% | 1008.3 hPa | 2.03 mm | 2.24 m/s, 348° | - | - |
| 1778060302 | 10.56° C | 97% | 1008.3 hPa | 2.03 mm | 2.68 m/s, 313° | - | - |
| 1778060004 | 10.56° C | 97% | 1008.4 hPa | 2.29 mm | 1.79 m/s, 358° | - | - |
| 1778059707 | 10.56° C | 97% | 1008.2 hPa | 2.03 mm | 1.34 m/s, 350° | - | - |
| 1778059403 | 10.56° C | 97% | 1008 hPa | 2.29 mm | 1.34 m/s, 92° | - | - |
| 1778059101 | 10.56° C | 97% | 1007.9 hPa | 2.29 mm | 2.24 m/s, 315° | - | - |
| 1778058801 | 11.11° C | 97% | 1007.8 hPa | 2.29 mm | 0.89 m/s, 323° | - | - |
| 1778058500 | 11.11° C | 97% | 1007.4 hPa | 2.79 mm | 1.34 m/s, 43° | - | - |
| 1778058200 | 11.11° C | 97% | 1007.3 hPa | 2.54 mm | 3.13 m/s, 336° | - | - |
| 1778057932 | 11.11° C | 97% | 1008 hPa | 2.03 mm | 1.34 m/s, 289° | - | - |
| 1778057900 | 11.11° C | 97% | 1007.4 hPa | 2.54 mm | 0 m/s | - | - |
| 1778057600 | 11.11° C | 97% | 1008 hPa | 2.03 mm | 1.34 m/s, 289° | - | - |
| 1778057350 | 11.11° C | 97% | 1008 hPa | 1.78 mm | 2.24 m/s, 322° | - | - |
| 1778057299 | 11.11° C | 97% | 1008 hPa | 1.78 mm | 2.24 m/s, 322° | - | - |
| 1778057230 | 11.11° C | 97% | 1008 hPa | 1.27 mm | 2.24 m/s, 275° | - | - |
| 1778057001 | 11.11° C | 97% | 1008 hPa | 1.27 mm | 2.24 m/s, 275° | - | - |
| 1778056698 | 11.11° C | 97% | 1007.7 hPa | 1.27 mm | 0.89 m/s, 241° | - | - |
| 1778056677 | 11.11° C | 97% | 1007.7 hPa | 1.27 mm | 2.24 m/s, 295° | - | - |
| 1778056450 | 11.11° C | 97% | 1007.7 hPa | 1.27 mm | 2.24 m/s, 295° | - | - |
| 1778056402 | 11.11° C | 97% | 1007.7 hPa | 1.27 mm | 2.24 m/s, 295° | - | - |
* Rain latest hour (hover to see other rain measurements)
** Current wind speed in m/s (hover to see current wind gust speed)